createdAt,value
2022-09-25T00:01:48.772Z,58.51
2022-09-25T00:06:50.309Z,58.50
2022-09-25T00:11:51.819Z,58.49
2022-09-25T00:16:53.390Z,58.63
2022-09-25T00:21:54.912Z,58.71
2022-09-25T00:26:56.389Z,58.91
2022-09-25T00:31:57.952Z,58.81
2022-09-25T00:36:59.489Z,58.88
2022-09-25T00:42:00.973Z,59.06
2022-09-25T00:47:03.313Z,59.23
2022-09-25T00:52:09.852Z,59.08
2022-09-25T00:57:15.752Z,59.03
2022-09-25T01:02:24.870Z,59.14
2022-09-25T01:07:26.971Z,59.18
2022-09-25T01:12:28.660Z,59.24
2022-09-25T01:17:41.321Z,59.06
2022-09-25T01:22:51.982Z,59.01
2022-09-25T01:28:29.680Z,58.86
2022-09-25T01:33:42.604Z,59.05
2022-09-25T01:38:50.947Z,58.98
2022-09-25T01:44:02.642Z,58.91
2022-09-25T01:49:17.118Z,58.79
2022-09-25T01:54:27.998Z,58.63
2022-09-25T01:59:42.402Z,58.64
2022-09-25T02:04:52.836Z,58.45
2022-09-25T02:10:12.883Z,58.51
2022-09-25T02:15:26.556Z,58.64
2022-09-25T02:20:32.974Z,58.56
2022-09-25T02:25:38.041Z,58.70
2022-09-25T02:30:39.857Z,58.72
2022-09-25T02:35:42.322Z,58.78
2022-09-25T02:40:51.984Z,58.61
2022-09-25T02:46:10.468Z,58.41
2022-09-25T02:51:21.127Z,58.71
2022-09-25T02:56:29.170Z,58.70
2022-09-25T03:01:33.752Z,58.89
2022-09-25T03:06:54.306Z,58.66
2022-09-25T03:11:57.578Z,58.72
2022-09-25T03:17:04.840Z,58.65
2022-09-25T03:22:06.405Z,58.66
2022-09-25T03:27:07.908Z,58.80
2022-09-25T03:32:09.888Z,58.62
2022-09-25T03:37:11.367Z,58.38
2022-09-25T03:42:13.848Z,58.62
2022-09-25T03:47:15.542Z,58.40
2022-09-25T03:52:17.200Z,58.28
2022-09-25T03:57:18.687Z,58.42
2022-09-25T04:02:20.215Z,58.32
2022-09-25T04:07:22.625Z,58.28
2022-09-25T04:12:24.141Z,58.38
2022-09-25T04:17:25.643Z,58.21
2022-09-25T04:22:27.224Z,58.34
2022-09-25T04:27:28.722Z,58.20
2022-09-25T04:32:48.818Z,58.24
2022-09-25T04:37:50.374Z,58.25
2022-09-25T04:42:57.315Z,57.94
2022-09-25T04:48:00.385Z,58.29
2022-09-25T04:53:02.872Z,58.27
2022-09-25T04:58:04.351Z,58.29
2022-09-25T05:03:05.966Z,58.25
2022-09-25T05:08:07.691Z,58.41
2022-09-25T05:13:11.143Z,58.40
2022-09-25T05:18:17.289Z,58.33
2022-09-25T05:23:19.024Z,58.33
2022-09-25T05:28:20.736Z,58.31
2022-09-25T05:33:22.191Z,58.34
2022-09-25T05:38:23.765Z,58.34
2022-09-25T05:43:25.464Z,58.40
2022-09-25T05:48:27.004Z,58.43
2022-09-25T05:53:30.551Z,58.31
2022-09-25T05:58:34.155Z,58.39
2022-09-25T06:03:36.041Z,58.60
2022-09-25T06:08:37.766Z,58.66
2022-09-25T06:13:39.328Z,58.35
2022-09-25T06:18:40.803Z,58.65
2022-09-25T06:23:44.894Z,58.71
2022-09-25T06:28:46.363Z,58.66
2022-09-25T06:33:50.665Z,58.90
2022-09-25T06:38:55.758Z,58.89
2022-09-25T06:43:57.260Z,59.11
2022-09-25T06:48:58.811Z,59.48
2022-09-25T06:54:00.326Z,59.26
2022-09-25T06:59:01.807Z,59.30
2022-09-25T07:04:04.042Z,59.32
2022-09-25T07:09:05.600Z,59.07
2022-09-25T07:14:07.118Z,59.28
2022-09-25T07:19:09.294Z,59.17
2022-09-25T07:24:11.008Z,59.26
2022-09-25T07:29:12.645Z,59.14
2022-09-25T07:34:14.169Z,58.62
2022-09-25T07:39:24.277Z,58.72
2022-09-25T07:44:31.650Z,58.98
2022-09-25T07:49:40.144Z,58.96
2022-09-25T07:54:43.083Z,58.70
2022-09-25T07:59:45.800Z,58.58
2022-09-25T08:04:47.264Z,58.62
2022-09-25T08:09:48.918Z,58.59
2022-09-25T08:14:51.400Z,58.78
2022-09-25T08:19:52.872Z,58.59
2022-09-25T08:24:54.811Z,58.52
2022-09-25T08:29:56.519Z,58.49
2022-09-25T08:34:58.005Z,58.46
2022-09-25T08:40:00.058Z,58.47
2022-09-25T08:45:26.219Z,58.39
2022-09-25T08:50:29.624Z,58.41
2022-09-25T08:56:02.223Z,58.26
2022-09-25T09:01:09.079Z,58.42
2022-09-25T09:06:14.995Z,58.62
2022-09-25T09:11:22.213Z,58.62
2022-09-25T09:16:26.656Z,58.58
2022-09-25T09:21:28.082Z,58.67
2022-09-25T09:26:50.075Z,58.54
2022-09-25T09:32:03.036Z,58.43
2022-09-25T09:37:22.834Z,58.42
2022-09-25T09:42:40.570Z,58.17
2022-09-25T09:47:56.012Z,58.40
2022-09-25T09:53:04.620Z,58.44
2022-09-25T09:58:17.947Z,58.20
2022-09-25T10:03:28.143Z,58.15
2022-09-25T10:08:30.511Z,58.12
2022-09-25T10:13:37.066Z,57.99
2022-09-25T10:18:44.802Z,57.97
2022-09-25T10:23:46.215Z,57.93
2022-09-25T10:28:47.742Z,57.92
2022-09-25T10:34:12.509Z,57.62
2022-09-25T10:39:51.310Z,57.59
2022-09-25T10:44:58.068Z,57.80
2022-09-25T10:50:12.276Z,57.38
2022-09-25T10:55:20.835Z,56.87
2022-09-25T11:00:24.143Z,56.77
2022-09-25T11:05:32.217Z,56.19
2022-09-25T11:10:36.909Z,56.25
2022-09-25T11:15:39.130Z,55.83
2022-09-25T11:20:42.255Z,55.68
2022-09-25T11:25:53.052Z,55.75
2022-09-25T11:31:27.593Z,55.52
2022-09-25T11:36:41.232Z,55.27
2022-09-25T11:41:55.120Z,55.29
2022-09-25T11:47:27.618Z,55.36
2022-09-25T11:52:48.367Z,55.30
2022-09-25T11:58:14.471Z,55.44
2022-09-25T12:03:37.781Z,55.47
2022-09-25T12:08:59.225Z,55.33
2022-09-25T12:14:19.287Z,55.35
2022-09-25T12:19:37.277Z,55.33
2022-09-25T12:24:57.086Z,55.05
2022-09-25T12:30:28.034Z,54.88
2022-09-25T12:35:46.533Z,55.05
2022-09-25T12:40:47.946Z,55.18
2022-09-25T12:45:58.932Z,54.82
2022-09-25T12:51:14.967Z,54.90
2022-09-25T12:56:44.450Z,54.82
2022-09-25T13:02:30.964Z,54.72
2022-09-25T13:07:46.244Z,54.53
2022-09-25T13:12:49.614Z,54.31
2022-09-25T13:17:51.357Z,54.46
2022-09-25T13:23:15.889Z,54.52
2022-09-25T13:28:23.404Z,54.41
2022-09-25T13:33:25.450Z,54.28
2022-09-25T13:38:45.530Z,54.13
2022-09-25T13:43:49.484Z,54.32
2022-09-25T13:48:52.336Z,53.80
2022-09-25T13:54:04.463Z,53.92
2022-09-25T13:59:16.035Z,53.94
2022-09-25T14:04:25.135Z,53.89
2022-09-25T14:09:30.013Z,53.77
2022-09-25T14:14:52.226Z,53.91
2022-09-25T14:19:56.087Z,53.87
2022-09-25T14:24:57.563Z,53.72
2022-09-25T14:30:10.268Z,53.55
2022-09-25T14:35:30.749Z,53.61
2022-09-25T14:40:40.048Z,53.78
2022-09-25T14:46:02.798Z,53.46
2022-09-25T14:51:25.446Z,53.52
2022-09-25T14:56:34.273Z,53.65
2022-09-25T15:01:36.793Z,53.50
2022-09-25T15:06:40.507Z,53.42
2022-09-25T15:11:43.771Z,53.18
2022-09-25T15:17:04.253Z,53.11
2022-09-25T15:22:17.926Z,53.13
2022-09-25T15:27:20.540Z,53.16
2022-09-25T15:32:23.368Z,53.10
2022-09-25T15:37:29.378Z,53.11
2022-09-25T15:42:30.977Z,53.24
2022-09-25T15:47:35.418Z,53.18
2022-09-25T15:52:38.340Z,52.99
2022-09-25T15:57:40.804Z,53.00
2022-09-25T16:03:09.639Z,53.11
2022-09-25T16:08:17.735Z,52.97
2022-09-25T16:13:25.422Z,52.85
2022-09-25T16:18:34.423Z,52.94
2022-09-25T16:23:38.263Z,52.73
2022-09-25T16:28:39.918Z,52.73
2022-09-25T16:33:48.187Z,52.76
2022-09-25T16:39:07.841Z,52.78
2022-09-25T16:44:21.408Z,52.80
2022-09-25T16:49:24.744Z,52.68
2022-09-25T16:54:30.883Z,52.90
2022-09-25T16:59:32.509Z,52.92
2022-09-25T17:04:35.892Z,53.16
2022-09-25T17:09:37.379Z,53.15
2022-09-25T17:14:38.866Z,53.18
2022-09-25T17:19:40.421Z,53.12
2022-09-25T17:24:42.233Z,53.15
2022-09-25T17:29:46.121Z,53.12
2022-09-25T17:34:47.798Z,53.54
2022-09-25T17:39:49.395Z,53.40
2022-09-25T17:44:50.943Z,53.23
2022-09-25T17:49:52.413Z,53.51
2022-09-25T17:54:53.927Z,53.45
2022-09-25T17:59:55.645Z,53.45
2022-09-25T18:04:57.228Z,53.55
2022-09-25T18:09:58.820Z,53.59
2022-09-25T18:15:00.452Z,53.52
2022-09-25T18:20:20.757Z,53.85
2022-09-25T18:25:22.311Z,54.06
2022-09-25T18:30:24.841Z,53.83
2022-09-25T18:35:26.453Z,53.91
2022-09-25T18:40:28.322Z,54.03
2022-09-25T18:45:29.964Z,54.33
2022-09-25T18:50:32.339Z,54.17
2022-09-25T18:55:33.887Z,54.17
2022-09-25T19:00:35.540Z,54.30
2022-09-25T19:05:37.092Z,54.33
2022-09-25T19:10:38.641Z,54.41
2022-09-25T19:15:43.286Z,54.56
2022-09-25T19:20:53.456Z,54.54
2022-09-25T19:26:01.211Z,54.57
2022-09-25T19:31:08.434Z,54.82
2022-09-25T19:36:31.057Z,54.76
2022-09-25T19:41:35.122Z,54.98
2022-09-25T19:46:36.770Z,55.00
2022-09-25T19:51:39.038Z,55.08
2022-09-25T19:56:42.241Z,55.15
2022-09-25T20:01:44.634Z,55.30
2022-09-25T20:06:46.963Z,55.39
2022-09-25T20:11:48.668Z,55.50
2022-09-25T20:16:50.177Z,55.38
2022-09-25T20:21:52.972Z,55.15
2022-09-25T20:26:55.474Z,55.41
2022-09-25T20:31:56.997Z,55.24
2022-09-25T20:36:58.481Z,55.10
2022-09-25T20:41:59.931Z,55.01
2022-09-25T20:47:01.442Z,55.26
2022-09-25T20:52:03.740Z,55.27
2022-09-25T20:57:05.198Z,55.13
2022-09-25T21:02:07.954Z,55.60
2022-09-25T21:07:14.361Z,55.31
2022-09-25T21:12:18.157Z,55.36
2022-09-25T21:17:19.777Z,55.25
2022-09-25T21:22:21.374Z,55.23
2022-09-25T21:27:22.882Z,55.50
2022-09-25T21:32:24.349Z,55.31
2022-09-25T21:37:25.821Z,55.33
2022-09-25T21:42:29.635Z,55.46
2022-09-25T21:47:31.291Z,55.23
2022-09-25T21:52:32.807Z,55.28
2022-09-25T21:57:34.367Z,55.50
2022-09-25T22:02:35.877Z,55.31
2022-09-25T22:07:37.459Z,55.33
2022-09-25T22:12:38.933Z,55.58
2022-09-25T22:17:40.391Z,55.44
2022-09-25T22:22:41.867Z,55.51
2022-09-25T22:27:43.360Z,55.66
2022-09-25T22:32:45.111Z,55.55
2022-09-25T22:37:46.580Z,55.49
2022-09-25T22:42:48.093Z,55.58
2022-09-25T22:47:49.615Z,55.41
2022-09-25T22:52:53.255Z,55.63
2022-09-25T22:57:57.786Z,55.64
2022-09-25T23:02:59.303Z,55.91
2022-09-25T23:08:00.926Z,55.76
2022-09-25T23:13:03.046Z,55.88
2022-09-25T23:18:05.427Z,55.86
2022-09-25T23:23:06.916Z,55.90
2022-09-25T23:28:08.433Z,55.75
2022-09-25T23:33:09.913Z,55.72
2022-09-25T23:38:11.782Z,55.73
2022-09-25T23:43:13.309Z,55.42
2022-09-25T23:48:15.667Z,55.49
2022-09-25T23:53:17.255Z,55.61
2022-09-25T23:58:18.973Z,55.37
